DAUH/HME METAR and TAF weather

Enter ICAO airport designator
Station Type Date Time Source
DAUH METAR 2021/09/27 07:00 UTC NOAA

DAUH 270700Z 08003KT CAVOK 27/03 Q1016


Station Type Date Time Source
DAUH Decoded METAR 2021/09/27 07:00 UTC NOAA

Hassi-Messaoud, Algeria (DAUH) 31-40N 006-09E 142M
Sep 27, 2021 - 03:00 AM EDT / 2021.09.27 0700 UTC
Wind: from the E (080 degrees) at 3 MPH (3 KT):0
Visibility: greater than 7 mile(s):0
Temperature: 80 F (27 C)
Dew Point: 37 F (3 C)
Relative Humidity: 21%
Pressure (altimeter): 30.00 in. Hg (1016 hPa)
ob: DAUH 270700Z 08003KT CAVOK 27/03 Q1016
cycle: 7

Station Type Date Time Source
DAUH TAF 2021/09/27 06:30 UTC NOAA

TAF DAUH 270500Z 2706/2806 14005KT 8000 NSC

Example: see airport list